sensor_id;sensor_type;location;lat;lon;timestamp;P1;durP1;ratioP1;P2;durP2;ratioP2
64199;SDS011;50516;52.272;5.136;2023-07-20T00:00:33;2.58;;;1.92;;
64199;SDS011;50516;52.272;5.136;2023-07-20T00:03:11;4.07;;;2.00;;
64199;SDS011;50516;52.272;5.136;2023-07-20T00:05:41;2.38;;;2.08;;
64199;SDS011;50516;52.272;5.136;2023-07-20T00:08:07;3.88;;;2.15;;
64199;SDS011;50516;52.272;5.136;2023-07-20T00:10:32;2.67;;;1.95;;
64199;SDS011;50516;52.272;5.136;2023-07-20T00:12:58;2.80;;;2.17;;
64199;SDS011;50516;52.272;5.136;2023-07-20T00:15:23;4.15;;;2.65;;
64199;SDS011;50516;52.272;5.136;2023-07-20T00:17:49;14.48;;;2.70;;
64199;SDS011;50516;52.272;5.136;2023-07-20T00:20:14;4.38;;;2.40;;
64199;SDS011;50516;52.272;5.136;2023-07-20T00:22:39;2.72;;;2.20;;
64199;SDS011;50516;52.272;5.136;2023-07-20T00:25:05;3.50;;;2.40;;
64199;SDS011;50516;52.272;5.136;2023-07-20T00:27:30;3.08;;;2.40;;
64199;SDS011;50516;52.272;5.136;2023-07-20T00:29:56;3.42;;;2.50;;
64199;SDS011;50516;52.272;5.136;2023-07-20T00:32:21;2.72;;;2.33;;
64199;SDS011;50516;52.272;5.136;2023-07-20T00:34:46;5.30;;;2.60;;
64199;SDS011;50516;52.272;5.136;2023-07-20T00:37:12;3.20;;;2.30;;
64199;SDS011;50516;52.272;5.136;2023-07-20T00:39:37;2.67;;;2.38;;
64199;SDS011;50516;52.272;5.136;2023-07-20T00:42:03;4.53;;;2.83;;
64199;SDS011;50516;52.272;5.136;2023-07-20T00:44:29;4.88;;;2.63;;
64199;SDS011;50516;52.272;5.136;2023-07-20T00:46:55;3.50;;;2.60;;
64199;SDS011;50516;52.272;5.136;2023-07-20T00:49:21;4.88;;;2.75;;
64199;SDS011;50516;52.272;5.136;2023-07-20T00:51:48;4.65;;;2.72;;
64199;SDS011;50516;52.272;5.136;2023-07-20T00:54:14;5.45;;;2.80;;
64199;SDS011;50516;52.272;5.136;2023-07-20T00:56:41;3.88;;;2.72;;
64199;SDS011;50516;52.272;5.136;2023-07-20T00:59:07;3.60;;;2.72;;
64199;SDS011;50516;52.272;5.136;2023-07-20T01:01:32;3.72;;;2.83;;
64199;SDS011;50516;52.272;5.136;2023-07-20T01:03:58;3.83;;;2.70;;
64199;SDS011;50516;52.272;5.136;2023-07-20T01:09:19;5.57;;;2.83;;
64199;SDS011;50516;52.272;5.136;2023-07-20T01:11:56;4.95;;;2.92;;
64199;SDS011;50516;52.272;5.136;2023-07-20T01:14:43;3.30;;;2.60;;
64199;SDS011;50516;52.272;5.136;2023-07-20T01:17:09;5.03;;;3.05;;
64199;SDS011;50516;52.272;5.136;2023-07-20T01:19:35;3.55;;;2.75;;
64199;SDS011;50516;52.272;5.136;2023-07-20T01:22:09;3.92;;;2.67;;
64199;SDS011;50516;52.272;5.136;2023-07-20T01:25:18;3.05;;;2.50;;
64199;SDS011;50516;52.272;5.136;2023-07-20T01:27:42;8.70;;;4.15;;
64199;SDS011;50516;52.272;5.136;2023-07-20T01:33:09;4.75;;;2.60;;
64199;SDS011;50516;52.272;5.136;2023-07-20T01:35:38;6.32;;;3.75;;
64199;SDS011;50516;52.272;5.136;2023-07-20T01:38:05;4.38;;;3.28;;
64199;SDS011;50516;52.272;5.136;2023-07-20T01:40:32;4.95;;;2.90;;
64199;SDS011;50516;52.272;5.136;2023-07-20T01:42:58;5.80;;;3.13;;
64199;SDS011;50516;52.272;5.136;2023-07-20T01:45:23;4.28;;;2.60;;
64199;SDS011;50516;52.272;5.136;2023-07-20T01:47:48;4.00;;;2.80;;
64199;SDS011;50516;52.272;5.136;2023-07-20T01:50:14;3.95;;;2.80;;
64199;SDS011;50516;52.272;5.136;2023-07-20T01:52:39;5.40;;;3.60;;
64199;SDS011;50516;52.272;5.136;2023-07-20T01:55:04;7.60;;;3.40;;
64199;SDS011;50516;52.272;5.136;2023-07-20T01:57:30;6.05;;;2.80;;
64199;SDS011;50516;52.272;5.136;2023-07-20T01:59:56;4.20;;;2.65;;
64199;SDS011;50516;52.272;5.136;2023-07-20T02:02:23;7.38;;;2.90;;
64199;SDS011;50516;52.272;5.136;2023-07-20T02:04:51;7.13;;;2.67;;
64199;SDS011;50516;52.272;5.136;2023-07-20T02:07:16;5.18;;;3.20;;
64199;SDS011;50516;52.272;5.136;2023-07-20T02:09:42;4.82;;;3.10;;
64199;SDS011;50516;52.272;5.136;2023-07-20T02:12:07;3.90;;;2.75;;
64199;SDS011;50516;52.272;5.136;2023-07-20T02:14:33;5.28;;;3.13;;
64199;SDS011;50516;52.272;5.136;2023-07-20T02:16:58;5.55;;;3.20;;
64199;SDS011;50516;52.272;5.136;2023-07-20T02:19:25;5.60;;;3.47;;
64199;SDS011;50516;52.272;5.136;2023-07-20T02:21:51;6.13;;;3.35;;
64199;SDS011;50516;52.272;5.136;2023-07-20T02:24:17;5.63;;;3.40;;
64199;SDS011;50516;52.272;5.136;2023-07-20T02:26:42;5.70;;;3.28;;
64199;SDS011;50516;52.272;5.136;2023-07-20T02:29:07;4.85;;;3.40;;
64199;SDS011;50516;52.272;5.136;2023-07-20T02:31:33;6.07;;;3.42;;
64199;SDS011;50516;52.272;5.136;2023-07-20T02:33:58;6.93;;;3.90;;
64199;SDS011;50516;52.272;5.136;2023-07-20T02:36:24;6.97;;;3.55;;
64199;SDS011;50516;52.272;5.136;2023-07-20T02:38:49;4.78;;;3.20;;
64199;SDS011;50516;52.272;5.136;2023-07-20T02:41:14;8.27;;;4.28;;
64199;SDS011;50516;52.272;5.136;2023-07-20T02:43:40;4.75;;;3.45;;
64199;SDS011;50516;52.272;5.136;2023-07-20T02:46:05;6.32;;;3.50;;
64199;SDS011;50516;52.272;5.136;2023-07-20T02:48:31;6.43;;;3.45;;
64199;SDS011;50516;52.272;5.136;2023-07-20T02:50:56;5.57;;;3.50;;
64199;SDS011;50516;52.272;5.136;2023-07-20T02:53:21;6.93;;;3.60;;
64199;SDS011;50516;52.272;5.136;2023-07-20T02:55:47;8.55;;;3.38;;
64199;SDS011;50516;52.272;5.136;2023-07-20T02:58:12;4.82;;;2.97;;
64199;SDS011;50516;52.272;5.136;2023-07-20T03:00:37;4.72;;;3.13;;
64199;SDS011;50516;52.272;5.136;2023-07-20T03:03:03;4.32;;;3.20;;
64199;SDS011;50516;52.272;5.136;2023-07-20T03:05:28;4.78;;;3.30;;
64199;SDS011;50516;52.272;5.136;2023-07-20T03:07:55;7.88;;;3.47;;
64199;SDS011;50516;52.272;5.136;2023-07-20T03:10:20;4.40;;;3.13;;
64199;SDS011;50516;52.272;5.136;2023-07-20T03:12:46;5.22;;;3.22;;
64199;SDS011;50516;52.272;5.136;2023-07-20T03:15:11;5.20;;;3.80;;
64199;SDS011;50516;52.272;5.136;2023-07-20T03:17:36;5.20;;;3.60;;
64199;SDS011;50516;52.272;5.136;2023-07-20T03:20:02;5.20;;;3.28;;
64199;SDS011;50516;52.272;5.136;2023-07-20T03:22:28;4.82;;;3.40;;
64199;SDS011;50516;52.272;5.136;2023-07-20T03:24:53;4.72;;;3.50;;
64199;SDS011;50516;52.272;5.136;2023-07-20T03:27:18;5.47;;;3.65;;
64199;SDS011;50516;52.272;5.136;2023-07-20T03:29:44;5.53;;;4.43;;
64199;SDS011;50516;52.272;5.136;2023-07-20T03:32:09;4.80;;;3.40;;
64199;SDS011;50516;52.272;5.136;2023-07-20T03:34:35;4.60;;;3.53;;
64199;SDS011;50516;52.272;5.136;2023-07-20T03:37:01;5.47;;;3.92;;
64199;SDS011;50516;52.272;5.136;2023-07-20T03:39:29;4.60;;;3.47;;
64199;SDS011;50516;52.272;5.136;2023-07-20T03:41:54;8.98;;;3.78;;
64199;SDS011;50516;52.272;5.136;2023-07-20T03:44:20;5.18;;;3.70;;
64199;SDS011;50516;52.272;5.136;2023-07-20T03:46:45;8.35;;;3.53;;
64199;SDS011;50516;52.272;5.136;2023-07-20T03:49:10;7.72;;;4.30;;
64199;SDS011;50516;52.272;5.136;2023-07-20T03:51:36;6.50;;;3.88;;
64199;SDS011;50516;52.272;5.136;2023-07-20T03:54:01;6.90;;;4.13;;
64199;SDS011;50516;52.272;5.136;2023-07-20T03:56:27;5.15;;;3.85;;
64199;SDS011;50516;52.272;5.136;2023-07-20T03:58:52;4.90;;;3.80;;
64199;SDS011;50516;52.272;5.136;2023-07-20T04:01:18;5.75;;;4.13;;
64199;SDS011;50516;52.272;5.136;2023-07-20T04:03:43;5.60;;;3.60;;
64199;SDS011;50516;52.272;5.136;2023-07-20T04:06:08;4.22;;;3.25;;
64199;SDS011;50516;52.272;5.136;2023-07-20T04:08:35;7.05;;;3.80;;
64199;SDS011;50516;52.272;5.136;2023-07-20T04:11:02;5.18;;;3.78;;
64199;SDS011;50516;52.272;5.136;2023-07-20T04:13:27;6.88;;;3.28;;
64199;SDS011;50516;52.272;5.136;2023-07-20T04:15:53;3.80;;;2.88;;
64199;SDS011;50516;52.272;5.136;2023-07-20T04:18:18;5.63;;;3.38;;
64199;SDS011;50516;52.272;5.136;2023-07-20T04:20:44;4.40;;;2.95;;
64199;SDS011;50516;52.272;5.136;2023-07-20T04:23:10;4.10;;;2.92;;
64199;SDS011;50516;52.272;5.136;2023-07-20T04:25:35;4.75;;;2.97;;
64199;SDS011;50516;52.272;5.136;2023-07-20T04:28:04;4.65;;;3.38;;
64199;SDS011;50516;52.272;5.136;2023-07-20T04:30:33;5.47;;;3.10;;
64199;SDS011;50516;52.272;5.136;2023-07-20T04:33:00;5.50;;;3.67;;
64199;SDS011;50516;52.272;5.136;2023-07-20T04:38:11;4.60;;;2.83;;
64199;SDS011;50516;52.272;5.136;2023-07-20T04:40:37;4.82;;;2.92;;
64199;SDS011;50516;52.272;5.136;2023-07-20T04:43:02;3.92;;;3.08;;
64199;SDS011;50516;52.272;5.136;2023-07-20T04:45:28;5.80;;;3.05;;
64199;SDS011;50516;52.272;5.136;2023-07-20T04:47:53;4.50;;;3.00;;
64199;SDS011;50516;52.272;5.136;2023-07-20T04:50:18;4.63;;;2.88;;
64199;SDS011;50516;52.272;5.136;2023-07-20T04:52:44;3.95;;;2.80;;
64199;SDS011;50516;52.272;5.136;2023-07-20T04:55:11;6.65;;;2.80;;
64199;SDS011;50516;52.272;5.136;2023-07-20T04:57:36;6.18;;;3.28;;
64199;SDS011;50516;52.272;5.136;2023-07-20T05:00:01;6.22;;;2.65;;
64199;SDS011;50516;52.272;5.136;2023-07-20T05:02:28;5.57;;;2.78;;
64199;SDS011;50516;52.272;5.136;2023-07-20T05:04:54;4.35;;;3.15;;
64199;SDS011;50516;52.272;5.136;2023-07-20T05:07:19;4.93;;;2.88;;
64199;SDS011;50516;52.272;5.136;2023-07-20T05:09:45;11.07;;;2.35;;
64199;SDS011;50516;52.272;5.136;2023-07-20T05:12:10;4.55;;;2.33;;
64199;SDS011;50516;52.272;5.136;2023-07-20T05:14:37;3.65;;;2.40;;
64199;SDS011;50516;52.272;5.136;2023-07-20T05:17:03;8.30;;;3.22;;
64199;SDS011;50516;52.272;5.136;2023-07-20T05:19:28;3.38;;;2.15;;
64199;SDS011;50516;52.272;5.136;2023-07-20T05:21:53;4.38;;;2.40;;
64199;SDS011;50516;52.272;5.136;2023-07-20T05:24:19;5.13;;;2.40;;
64199;SDS011;50516;52.272;5.136;2023-07-20T05:26:44;4.18;;;2.40;;
64199;SDS011;50516;52.272;5.136;2023-07-20T05:29:09;2.13;;;1.92;;
64199;SDS011;50516;52.272;5.136;2023-07-20T05:31:35;3.67;;;2.25;;
64199;SDS011;50516;52.272;5.136;2023-07-20T05:34:00;4.45;;;2.15;;
64199;SDS011;50516;52.272;5.136;2023-07-20T05:36:25;3.45;;;2.33;;
64199;SDS011;50516;52.272;5.136;2023-07-20T05:38:51;3.60;;;2.45;;
64199;SDS011;50516;52.272;5.136;2023-07-20T05:41:17;9.85;;;2.50;;
64199;SDS011;50516;52.272;5.136;2023-07-20T05:43:42;7.35;;;2.60;;
64199;SDS011;50516;52.272;5.136;2023-07-20T05:46:08;3.95;;;1.98;;
64199;SDS011;50516;52.272;5.136;2023-07-20T05:48:33;7.70;;;2.53;;
64199;SDS011;50516;52.272;5.136;2023-07-20T05:50:59;4.35;;;2.05;;
64199;SDS011;50516;52.272;5.136;2023-07-20T05:53:24;4.15;;;2.40;;
64199;SDS011;50516;52.272;5.136;2023-07-20T05:55:53;3.95;;;1.95;;
64199;SDS011;50516;52.272;5.136;2023-07-20T05:58:19;2.75;;;2.00;;
64199;SDS011;50516;52.272;5.136;2023-07-20T06:00:47;5.68;;;2.00;;
64199;SDS011;50516;52.272;5.136;2023-07-20T06:03:13;3.88;;;1.83;;
64199;SDS011;50516;52.272;5.136;2023-07-20T06:05:38;5.22;;;2.22;;
64199;SDS011;50516;52.272;5.136;2023-07-20T06:08:04;3.22;;;1.90;;
64199;SDS011;50516;52.272;5.136;2023-07-20T06:10:29;4.38;;;1.80;;
64199;SDS011;50516;52.272;5.136;2023-07-20T06:12:54;1.58;;;1.40;;
64199;SDS011;50516;52.272;5.136;2023-07-20T06:15:27;3.30;;;1.52;;
64199;SDS011;50516;52.272;5.136;2023-07-20T06:17:56;2.33;;;1.83;;
64199;SDS011;50516;52.272;5.136;2023-07-20T06:20:22;2.10;;;1.33;;
64199;SDS011;50516;52.272;5.136;2023-07-20T06:22:48;1.83;;;1.42;;
64199;SDS011;50516;52.272;5.136;2023-07-20T06:25:13;1.70;;;1.50;;
64199;SDS011;50516;52.272;5.136;2023-07-20T06:27:39;3.67;;;1.80;;
64199;SDS011;50516;52.272;5.136;2023-07-20T06:30:04;1.88;;;1.17;;
64199;SDS011;50516;52.272;5.136;2023-07-20T06:32:30;4.03;;;1.65;;
64199;SDS011;50516;52.272;5.136;2023-07-20T06:34:56;2.40;;;1.40;;
64199;SDS011;50516;52.272;5.136;2023-07-20T06:37:21;3.78;;;1.30;;
64199;SDS011;50516;52.272;5.136;2023-07-20T06:39:46;2.88;;;1.45;;
64199;SDS011;50516;52.272;5.136;2023-07-20T06:42:12;3.08;;;1.60;;
64199;SDS011;50516;52.272;5.136;2023-07-20T06:44:37;1.98;;;1.50;;
64199;SDS011;50516;52.272;5.136;2023-07-20T06:47:03;2.45;;;1.25;;
64199;SDS011;50516;52.272;5.136;2023-07-20T06:49:28;1.05;;;0.90;;
64199;SDS011;50516;52.272;5.136;2023-07-20T06:51:54;1.48;;;1.30;;
64199;SDS011;50516;52.272;5.136;2023-07-20T06:54:20;2.55;;;1.38;;
64199;SDS011;50516;52.272;5.136;2023-07-20T06:56:45;1.42;;;1.30;;
64199;SDS011;50516;52.272;5.136;2023-07-20T06:59:11;2.33;;;1.50;;
64199;SDS011;50516;52.272;5.136;2023-07-20T07:01:36;3.97;;;1.38;;
64199;SDS011;50516;52.272;5.136;2023-07-20T07:04:02;4.68;;;1.55;;
64199;SDS011;50516;52.272;5.136;2023-07-20T07:06:27;3.10;;;1.50;;
64199;SDS011;50516;52.272;5.136;2023-07-20T07:08:53;2.78;;;1.40;;
64199;SDS011;50516;52.272;5.136;2023-07-20T07:11:20;3.03;;;1.50;;
64199;SDS011;50516;52.272;5.136;2023-07-20T07:13:46;1.75;;;1.10;;
64199;SDS011;50516;52.272;5.136;2023-07-20T07:16:12;4.03;;;1.77;;
64199;SDS011;50516;52.272;5.136;2023-07-20T07:18:39;1.90;;;1.20;;
64199;SDS011;50516;52.272;5.136;2023-07-20T07:21:05;1.75;;;1.20;;
64199;SDS011;50516;52.272;5.136;2023-07-20T07:23:30;4.60;;;1.60;;
64199;SDS011;50516;52.272;5.136;2023-07-20T07:25:55;1.27;;;1.17;;
64199;SDS011;50516;52.272;5.136;2023-07-20T07:28:21;1.80;;;1.05;;
64199;SDS011;50516;52.272;5.136;2023-07-20T07:30:46;3.10;;;1.20;;
64199;SDS011;50516;52.272;5.136;2023-07-20T07:33:12;1.65;;;1.10;;
64199;SDS011;50516;52.272;5.136;2023-07-20T07:35:37;2.08;;;1.15;;
64199;SDS011;50516;52.272;5.136;2023-07-20T07:38:03;1.52;;;1.25;;
64199;SDS011;50516;52.272;5.136;2023-07-20T07:40:30;3.08;;;1.13;;
64199;SDS011;50516;52.272;5.136;2023-07-20T07:42:55;3.72;;;1.90;;
64199;SDS011;50516;52.272;5.136;2023-07-20T07:45:20;2.47;;;1.33;;
64199;SDS011;50516;52.272;5.136;2023-07-20T07:47:46;2.47;;;1.48;;
64199;SDS011;50516;52.272;5.136;2023-07-20T07:50:11;1.35;;;1.25;;
64199;SDS011;50516;52.272;5.136;2023-07-20T07:52:36;2.05;;;1.00;;
64199;SDS011;50516;52.272;5.136;2023-07-20T07:55:02;2.58;;;1.17;;
64199;SDS011;50516;52.272;5.136;2023-07-20T07:57:29;1.60;;;1.10;;
64199;SDS011;50516;52.272;5.136;2023-07-20T07:59:54;1.02;;;0.98;;
64199;SDS011;50516;52.272;5.136;2023-07-20T08:02:19;2.28;;;1.42;;
64199;SDS011;50516;52.272;5.136;2023-07-20T08:04:45;2.08;;;1.15;;
64199;SDS011;50516;52.272;5.136;2023-07-20T08:07:10;2.88;;;1.40;;
64199;SDS011;50516;52.272;5.136;2023-07-20T08:09:35;2.42;;;1.27;;
64199;SDS011;50516;52.272;5.136;2023-07-20T08:12:00;1.42;;;1.23;;
64199;SDS011;50516;52.272;5.136;2023-07-20T08:14:26;1.58;;;1.38;;
64199;SDS011;50516;52.272;5.136;2023-07-20T08:16:52;0.90;;;0.90;;
64199;SDS011;50516;52.272;5.136;2023-07-20T08:19:18;3.22;;;1.15;;
64199;SDS011;50516;52.272;5.136;2023-07-20T08:21:44;1.38;;;1.10;;
64199;SDS011;50516;52.272;5.136;2023-07-20T08:24:09;1.20;;;1.00;;
64199;SDS011;50516;52.272;5.136;2023-07-20T08:26:35;4.53;;;1.33;;
64199;SDS011;50516;52.272;5.136;2023-07-20T08:29:00;1.55;;;1.25;;
64199;SDS011;50516;52.272;5.136;2023-07-20T08:31:25;3.13;;;1.75;;
64199;SDS011;50516;52.272;5.136;2023-07-20T08:33:53;1.38;;;1.27;;
64199;SDS011;50516;52.272;5.136;2023-07-20T08:36:18;3.17;;;1.05;;
64199;SDS011;50516;52.272;5.136;2023-07-20T08:38:43;1.05;;;0.95;;
64199;SDS011;50516;52.272;5.136;2023-07-20T08:41:09;1.33;;;0.93;;
64199;SDS011;50516;52.272;5.136;2023-07-20T08:43:34;2.60;;;1.27;;
64199;SDS011;50516;52.272;5.136;2023-07-20T08:46:02;1.30;;;1.10;;
64199;SDS011;50516;52.272;5.136;2023-07-20T08:48:29;1.30;;;1.20;;
64199;SDS011;50516;52.272;5.136;2023-07-20T08:50:55;1.65;;;1.08;;
64199;SDS011;50516;52.272;5.136;2023-07-20T08:53:23;0.65;;;0.65;;
64199;SDS011;50516;52.272;5.136;2023-07-20T08:55:49;2.05;;;1.30;;
64199;SDS011;50516;52.272;5.136;2023-07-20T08:58:16;1.33;;;0.90;;
64199;SDS011;50516;52.272;5.136;2023-07-20T09:00:42;2.22;;;1.10;;
64199;SDS011;50516;52.272;5.136;2023-07-20T09:03:08;3.33;;;1.20;;
64199;SDS011;50516;52.272;5.136;2023-07-20T09:05:34;1.67;;;1.25;;
64199;SDS011;50516;52.272;5.136;2023-07-20T09:08:00;0.85;;;0.75;;
64199;SDS011;50516;52.272;5.136;2023-07-20T09:10:27;4.35;;;1.42;;
64199;SDS011;50516;52.272;5.136;2023-07-20T09:12:53;1.88;;;1.00;;
64199;SDS011;50516;52.272;5.136;2023-07-20T09:15:18;0.70;;;0.70;;
64199;SDS011;50516;52.272;5.136;2023-07-20T09:17:51;3.13;;;1.27;;
64199;SDS011;50516;52.272;5.136;2023-07-20T09:20:19;2.10;;;1.02;;
64199;SDS011;50516;52.272;5.136;2023-07-20T09:22:45;1.92;;;1.10;;
64199;SDS011;50516;52.272;5.136;2023-07-20T09:25:14;2.03;;;1.10;;
64199;SDS011;50516;52.272;5.136;2023-07-20T09:27:42;1.60;;;1.23;;
64199;SDS011;50516;52.272;5.136;2023-07-20T09:30:09;2.40;;;1.23;;
64199;SDS011;50516;52.272;5.136;2023-07-20T09:32:42;2.58;;;1.25;;
64199;SDS011;50516;52.272;5.136;2023-07-20T09:35:15;2.58;;;1.10;;
64199;SDS011;50516;52.272;5.136;2023-07-20T09:37:49;3.53;;;1.48;;
64199;SDS011;50516;52.272;5.136;2023-07-20T09:40:17;2.08;;;1.30;;
64199;SDS011;50516;52.272;5.136;2023-07-20T09:42:42;3.75;;;1.23;;
64199;SDS011;50516;52.272;5.136;2023-07-20T09:45:08;1.08;;;1.00;;
64199;SDS011;50516;52.272;5.136;2023-07-20T09:47:35;1.23;;;1.13;;
64199;SDS011;50516;52.272;5.136;2023-07-20T09:50:03;1.85;;;1.30;;
64199;SDS011;50516;52.272;5.136;2023-07-20T09:52:29;4.28;;;1.48;;
64199;SDS011;50516;52.272;5.136;2023-07-20T09:54:54;2.35;;;1.65;;
64199;SDS011;50516;52.272;5.136;2023-07-20T09:57:20;2.10;;;1.77;;
64199;SDS011;50516;52.272;5.136;2023-07-20T09:59:46;2.95;;;1.55;;
64199;SDS011;50516;52.272;5.136;2023-07-20T10:02:54;3.40;;;1.60;;
64199;SDS011;50516;52.272;5.136;2023-07-20T10:05:02;1.58;;;1.30;;
64199;SDS011;50516;52.272;5.136;2023-07-20T10:07:33;2.97;;;1.65;;
64199;SDS011;50516;52.272;5.136;2023-07-20T10:10:01;3.35;;;1.55;;
64199;SDS011;50516;52.272;5.136;2023-07-20T10:12:28;1.77;;;1.65;;
64199;SDS011;50516;52.272;5.136;2023-07-20T10:17:40;2.15;;;1.60;;
64199;SDS011;50516;52.272;5.136;2023-07-20T10:20:19;1.45;;;1.35;;
64199;SDS011;50516;52.272;5.136;2023-07-20T10:22:46;4.18;;;1.90;;
64199;SDS011;50516;52.272;5.136;2023-07-20T10:25:13;2.88;;;1.38;;
64199;SDS011;50516;52.272;5.136;2023-07-20T10:27:39;3.30;;;1.55;;
64199;SDS011;50516;52.272;5.136;2023-07-20T10:30:05;2.25;;;1.60;;
64199;SDS011;50516;52.272;5.136;2023-07-20T10:32:31;5.47;;;1.92;;
64199;SDS011;50516;52.272;5.136;2023-07-20T10:34:57;1.67;;;1.50;;
64199;SDS011;50516;52.272;5.136;2023-07-20T10:40:27;2.55;;;1.33;;
64199;SDS011;50516;52.272;5.136;2023-07-20T10:43:06;2.72;;;1.58;;
64199;SDS011;50516;52.272;5.136;2023-07-20T10:45:35;2.78;;;1.35;;
64199;SDS011;50516;52.272;5.136;2023-07-20T10:48:03;2.40;;;1.50;;
64199;SDS011;50516;52.272;5.136;2023-07-20T10:50:30;2.25;;;1.50;;
64199;SDS011;50516;52.272;5.136;2023-07-20T10:53:04;1.70;;;1.52;;
64199;SDS011;50516;52.272;5.136;2023-07-20T10:55:40;3.15;;;1.45;;
64199;SDS011;50516;52.272;5.136;2023-07-20T10:58:10;2.42;;;2.10;;
64199;SDS011;50516;52.272;5.136;2023-07-20T11:00:54;3.30;;;1.73;;
64199;SDS011;50516;52.272;5.136;2023-07-20T11:03:33;2.08;;;1.40;;
64199;SDS011;50516;52.272;5.136;2023-07-20T11:09:08;3.38;;;1.95;;
64199;SDS011;50516;52.272;5.136;2023-07-20T11:11:40;1.73;;;1.63;;
64199;SDS011;50516;52.272;5.136;2023-07-20T11:14:08;2.58;;;1.45;;
64199;SDS011;50516;52.272;5.136;2023-07-20T11:16:43;4.53;;;1.70;;
64199;SDS011;50516;52.272;5.136;2023-07-20T11:19:13;2.63;;;1.73;;
64199;SDS011;50516;52.272;5.136;2023-07-20T11:21:47;4.00;;;2.00;;
64199;SDS011;50516;52.272;5.136;2023-07-20T11:24:16;1.63;;;1.45;;
64199;SDS011;50516;52.272;5.136;2023-07-20T11:26:48;2.13;;;1.60;;
64199;SDS011;50516;52.272;5.136;2023-07-20T11:29:19;2.90;;;1.83;;
64199;SDS011;50516;52.272;5.136;2023-07-20T11:31:46;2.78;;;1.58;;
64199;SDS011;50516;52.272;5.136;2023-07-20T11:34:16;2.80;;;1.92;;
64199;SDS011;50516;52.272;5.136;2023-07-20T11:36:46;4.28;;;1.77;;
64199;SDS011;50516;52.272;5.136;2023-07-20T11:39:16;4.45;;;1.88;;
64199;SDS011;50516;52.272;5.136;2023-07-20T11:41:49;3.05;;;1.65;;
64199;SDS011;50516;52.272;5.136;2023-07-20T11:44:16;3.25;;;1.83;;
64199;SDS011;50516;52.272;5.136;2023-07-20T11:46:42;3.50;;;1.67;;
64199;SDS011;50516;52.272;5.136;2023-07-20T11:49:12;3.38;;;1.60;;
64199;SDS011;50516;52.272;5.136;2023-07-20T11:51:37;5.28;;;2.00;;
64199;SDS011;50516;52.272;5.136;2023-07-20T11:54:05;4.25;;;1.95;;
64199;SDS011;50516;52.272;5.136;2023-07-20T11:56:32;3.15;;;2.00;;
64199;SDS011;50516;52.272;5.136;2023-07-20T11:58:58;2.85;;;1.63;;
64199;SDS011;50516;52.272;5.136;2023-07-20T12:01:25;2.53;;;1.70;;
64199;SDS011;50516;52.272;5.136;2023-07-20T12:03:57;2.00;;;1.48;;
64199;SDS011;50516;52.272;5.136;2023-07-20T12:06:24;2.55;;;2.00;;
64199;SDS011;50516;52.272;5.136;2023-07-20T12:08:52;5.38;;;1.85;;
64199;SDS011;50516;52.272;5.136;2023-07-20T12:11:30;2.70;;;1.90;;
64199;SDS011;50516;52.272;5.136;2023-07-20T12:14:03;4.07;;;1.80;;
64199;SDS011;50516;52.272;5.136;2023-07-20T12:16:32;3.35;;;1.73;;
64199;SDS011;50516;52.272;5.136;2023-07-20T12:21:28;3.05;;;1.88;;
64199;SDS011;50516;52.272;5.136;2023-07-20T12:23:56;2.65;;;1.75;;
64199;SDS011;50516;52.272;5.136;2023-07-20T12:26:23;2.47;;;1.70;;
64199;SDS011;50516;52.272;5.136;2023-07-20T12:28:50;2.95;;;1.65;;
64199;SDS011;50516;52.272;5.136;2023-07-20T12:31:15;4.03;;;1.50;;
64199;SDS011;50516;52.272;5.136;2023-07-20T12:33:41;2.92;;;1.90;;
64199;SDS011;50516;52.272;5.136;2023-07-20T12:36:06;3.03;;;1.95;;
64199;SDS011;50516;52.272;5.136;2023-07-20T12:38:33;2.35;;;1.65;;
64199;SDS011;50516;52.272;5.136;2023-07-20T12:41:00;2.63;;;1.83;;
64199;SDS011;50516;52.272;5.136;2023-07-20T12:43:26;1.98;;;1.40;;
64199;SDS011;50516;52.272;5.136;2023-07-20T12:45:51;6.43;;;2.20;;
64199;SDS011;50516;52.272;5.136;2023-07-20T12:48:17;2.83;;;1.60;;
64199;SDS011;50516;52.272;5.136;2023-07-20T12:50:42;3.70;;;1.70;;
64199;SDS011;50516;52.272;5.136;2023-07-20T12:53:08;2.90;;;1.48;;
64199;SDS011;50516;52.272;5.136;2023-07-20T12:55:33;2.63;;;1.80;;
64199;SDS011;50516;52.272;5.136;2023-07-20T12:57:58;3.20;;;1.30;;
64199;SDS011;50516;52.272;5.136;2023-07-20T13:00:24;1.90;;;1.25;;
64199;SDS011;50516;52.272;5.136;2023-07-20T13:02:49;1.45;;;1.30;;
64199;SDS011;50516;52.272;5.136;2023-07-20T13:05:15;3.85;;;1.90;;
64199;SDS011;50516;52.272;5.136;2023-07-20T13:07:41;2.28;;;1.48;;
64199;SDS011;50516;52.272;5.136;2023-07-20T13:10:08;4.10;;;1.67;;
64199;SDS011;50516;52.272;5.136;2023-07-20T13:12:34;4.28;;;1.70;;
64199;SDS011;50516;52.272;5.136;2023-07-20T13:15:01;2.50;;;1.98;;
64199;SDS011;50516;52.272;5.136;2023-07-20T13:17:31;3.10;;;1.70;;
64199;SDS011;50516;52.272;5.136;2023-07-20T13:20:00;4.57;;;1.70;;
64199;SDS011;50516;52.272;5.136;2023-07-20T13:22:25;2.78;;;1.70;;
64199;SDS011;50516;52.272;5.136;2023-07-20T13:24:52;2.25;;;1.60;;
64199;SDS011;50516;52.272;5.136;2023-07-20T13:27:18;2.40;;;1.60;;
64199;SDS011;50516;52.272;5.136;2023-07-20T13:29:44;4.88;;;1.95;;
64199;SDS011;50516;52.272;5.136;2023-07-20T13:32:10;4.05;;;1.58;;
64199;SDS011;50516;52.272;5.136;2023-07-20T13:34:37;2.97;;;1.70;;
64199;SDS011;50516;52.272;5.136;2023-07-20T13:37:03;2.67;;;1.88;;
64199;SDS011;50516;52.272;5.136;2023-07-20T13:39:28;2.88;;;1.70;;
64199;SDS011;50516;52.272;5.136;2023-07-20T13:41:53;2.63;;;1.73;;
64199;SDS011;50516;52.272;5.136;2023-07-20T13:44:19;2.97;;;1.88;;
64199;SDS011;50516;52.272;5.136;2023-07-20T13:46:46;4.60;;;1.95;;
64199;SDS011;50516;52.272;5.136;2023-07-20T13:49:11;2.85;;;1.65;;
64199;SDS011;50516;52.272;5.136;2023-07-20T13:51:37;3.63;;;2.03;;
64199;SDS011;50516;52.272;5.136;2023-07-20T13:54:02;1.98;;;1.40;;
64199;SDS011;50516;52.272;5.136;2023-07-20T13:56:27;2.22;;;1.65;;
64199;SDS011;50516;52.272;5.136;2023-07-20T13:58:53;3.70;;;1.60;;
64199;SDS011;50516;52.272;5.136;2023-07-20T14:01:18;3.63;;;1.80;;
64199;SDS011;50516;52.272;5.136;2023-07-20T14:03:44;3.75;;;2.00;;
64199;SDS011;50516;52.272;5.136;2023-07-20T14:06:09;3.22;;;1.88;;
64199;SDS011;50516;52.272;5.136;2023-07-20T14:08:34;3.50;;;1.90;;
64199;SDS011;50516;52.272;5.136;2023-07-20T14:11:00;2.78;;;1.55;;
64199;SDS011;50516;52.272;5.136;2023-07-20T14:13:25;2.15;;;1.50;;
64199;SDS011;50516;52.272;5.136;2023-07-20T14:15:51;2.83;;;1.85;;
64199;SDS011;50516;52.272;5.136;2023-07-20T14:18:16;4.50;;;1.90;;
64199;SDS011;50516;52.272;5.136;2023-07-20T14:20:41;4.60;;;1.92;;
64199;SDS011;50516;52.272;5.136;2023-07-20T14:23:07;3.55;;;1.63;;
64199;SDS011;50516;52.272;5.136;2023-07-20T14:25:32;2.95;;;1.88;;
64199;SDS011;50516;52.272;5.136;2023-07-20T14:27:58;3.00;;;1.58;;
64199;SDS011;50516;52.272;5.136;2023-07-20T14:30:24;4.65;;;1.70;;
64199;SDS011;50516;52.272;5.136;2023-07-20T14:32:50;2.97;;;2.05;;
64199;SDS011;50516;52.272;5.136;2023-07-20T14:35:15;2.53;;;1.90;;
64199;SDS011;50516;52.272;5.136;2023-07-20T14:37:41;2.38;;;1.55;;
64199;SDS011;50516;52.272;5.136;2023-07-20T14:40:06;4.15;;;1.80;;
64199;SDS011;50516;52.272;5.136;2023-07-20T14:42:32;2.30;;;1.67;;
64199;SDS011;50516;52.272;5.136;2023-07-20T14:44:57;4.15;;;1.77;;
64199;SDS011;50516;52.272;5.136;2023-07-20T14:47:23;4.80;;;1.98;;
64199;SDS011;50516;52.272;5.136;2023-07-20T14:49:48;7.47;;;2.00;;
64199;SDS011;50516;52.272;5.136;2023-07-20T14:52:14;2.70;;;1.50;;
64199;SDS011;50516;52.272;5.136;2023-07-20T14:54:39;2.05;;;1.50;;
64199;SDS011;50516;52.272;5.136;2023-07-20T14:57:04;1.95;;;1.55;;
64199;SDS011;50516;52.272;5.136;2023-07-20T14:59:30;3.47;;;1.77;;
64199;SDS011;50516;52.272;5.136;2023-07-20T15:01:55;3.03;;;1.70;;
64199;SDS011;50516;52.272;5.136;2023-07-20T15:04:20;1.35;;;1.20;;